sensor_id;sensor_type;location;lat;lon;timestamp;pressure;altitude;pressure_sealevel;temperature;humidity
70488;BME280;57976;48.174;16.370;2023-05-01T09:44:44;99377.29;;;18.18;49.85
70488;BME280;57976;48.174;16.370;2023-05-01T09:46:49;99374.73;;;18.24;49.05
70488;BME280;57976;48.174;16.370;2023-05-01T09:48:58;99371.27;;;18.29;49.45
70488;BME280;57976;48.174;16.370;2023-05-01T09:51:26;99369.30;;;18.36;49.79
70488;BME280;57976;48.174;16.370;2023-05-01T09:53:39;99364.98;;;18.47;49.66
70488;BME280;57976;48.174;16.370;2023-05-01T09:56:00;99366.70;;;18.56;49.80
70488;BME280;57976;48.174;16.370;2023-05-01T09:58:05;99369.85;;;18.65;49.34
70488;BME280;57976;48.174;16.370;2023-05-01T10:00:11;99368.11;;;18.73;49.57
70488;BME280;57976;48.174;16.370;2023-05-01T10:02:29;99362.35;;;18.79;48.99
70488;BME280;57976;48.174;16.370;2023-05-01T10:04:35;99359.01;;;18.85;49.07
70488;BME280;57976;48.174;16.370;2023-05-01T10:06:40;99355.64;;;18.93;49.09
70488;BME280;57976;48.174;16.370;2023-05-01T10:08:47;99353.16;;;18.99;49.19
70488;BME280;57976;48.174;16.370;2023-05-01T10:11:03;99353.02;;;19.04;49.38
70488;BME280;57976;48.174;16.370;2023-05-01T10:13:17;99347.95;;;19.11;48.98
70488;BME280;57976;48.174;16.370;2023-05-01T10:15:22;99341.27;;;19.14;49.21
70488;BME280;57976;48.174;16.370;2023-05-01T10:17:41;99338.30;;;19.20;49.09
70488;BME280;57976;48.174;16.370;2023-05-01T10:19:46;99344.05;;;19.22;49.02
70488;BME280;57976;48.174;16.370;2023-05-01T10:21:51;99340.84;;;19.24;48.91
70488;BME280;57976;48.174;16.370;2023-05-01T10:23:56;99344.08;;;19.25;49.00
70488;BME280;57976;48.174;16.370;2023-05-01T10:26:03;99347.02;;;19.23;48.42
70488;BME280;57976;48.174;16.370;2023-05-01T10:28:13;99340.98;;;19.23;48.82
70488;BME280;57976;48.174;16.370;2023-05-01T10:30:18;99338.73;;;19.27;48.89
70488;BME280;57976;48.174;16.370;2023-05-01T10:32:24;99335.94;;;19.33;49.08
70488;BME280;57976;48.174;16.370;2023-05-01T10:34:33;99337.15;;;19.38;48.83
70488;BME280;57976;48.174;16.370;2023-05-01T10:36:42;99334.65;;;19.42;48.65
70488;BME280;57976;48.174;16.370;2023-05-01T10:38:49;99331.63;;;19.41;48.36
70488;BME280;57976;48.174;16.370;2023-05-01T10:40:54;99332.08;;;19.45;48.96
70488;BME280;57976;48.174;16.370;2023-05-01T10:43:15;99329.87;;;19.53;48.92
70488;BME280;57976;48.174;16.370;2023-05-01T10:45:30;99322.90;;;19.61;49.07
70488;BME280;57976;48.174;16.370;2023-05-01T10:47:46;99318.33;;;19.64;48.42
70488;BME280;57976;48.174;16.370;2023-05-01T10:50:05;99313.46;;;19.65;48.70
70488;BME280;57976;48.174;16.370;2023-05-01T10:52:10;99318.63;;;19.68;48.66
70488;BME280;57976;48.174;16.370;2023-05-01T10:54:25;99315.35;;;19.71;48.94
70488;BME280;57976;48.174;16.370;2023-05-01T10:56:43;99312.35;;;19.76;49.05
70488;BME280;57976;48.174;16.370;2023-05-01T10:58:59;99307.78;;;19.79;49.32
70488;BME280;57976;48.174;16.370;2023-05-01T11:01:28;99302.45;;;19.84;48.67
70488;BME280;57976;48.174;16.370;2023-05-01T11:03:36;99302.27;;;19.89;48.53
70488;BME280;57976;48.174;16.370;2023-05-01T11:06:06;99297.04;;;19.93;48.61
70488;BME280;57976;48.174;16.370;2023-05-01T11:08:29;99294.09;;;19.99;48.03
70488;BME280;57976;48.174;16.370;2023-05-01T11:10:34;99287.16;;;20.05;48.58
70488;BME280;57976;48.174;16.370;2023-05-01T11:12:52;99286.54;;;20.13;48.65
70488;BME280;57976;48.174;16.370;2023-05-01T11:15:04;99287.27;;;20.23;48.27
70488;BME280;57976;48.174;16.370;2023-05-01T11:17:09;99284.28;;;20.34;48.34
70488;BME280;57976;48.174;16.370;2023-05-01T11:19:46;99276.41;;;20.45;48.06
70488;BME280;57976;48.174;16.370;2023-05-01T11:21:51;99275.85;;;20.53;47.88
70488;BME280;57976;48.174;16.370;2023-05-01T11:23:56;99279.84;;;20.63;47.55
70488;BME280;57976;48.174;16.370;2023-05-01T11:26:04;99271.62;;;20.70;47.10
70488;BME280;57976;48.174;16.370;2023-05-01T11:28:10;99266.70;;;20.74;47.46
70488;BME280;57976;48.174;16.370;2023-05-01T11:30:15;99266.77;;;20.77;46.84
70488;BME280;57976;48.174;16.370;2023-05-01T11:32:24;99259.11;;;20.75;46.71
70488;BME280;57976;48.174;16.370;2023-05-01T11:34:35;99262.59;;;20.76;46.83
70488;BME280;57976;48.174;16.370;2023-05-01T11:36:49;99261.93;;;20.78;46.49
70488;BME280;57976;48.174;16.370;2023-05-01T11:38:56;99263.73;;;20.80;46.69
70488;BME280;57976;48.174;16.370;2023-05-01T11:41:03;99259.14;;;20.85;46.28
70488;BME280;57976;48.174;16.370;2023-05-01T11:43:08;99251.59;;;20.80;46.03
70488;BME280;57976;48.174;16.370;2023-05-01T11:45:14;99251.48;;;20.78;46.51
70488;BME280;57976;48.174;16.370;2023-05-01T11:47:19;99244.77;;;20.84;46.45
70488;BME280;57976;48.174;16.370;2023-05-01T11:49:28;99245.65;;;20.89;46.34
70488;BME280;57976;48.174;16.370;2023-05-01T11:51:33;99240.94;;;20.95;45.80
70488;BME280;57976;48.174;16.370;2023-05-01T11:53:38;99238.72;;;21.00;45.74
70488;BME280;57976;48.174;16.370;2023-05-01T11:55:44;99236.63;;;21.03;46.09
70488;BME280;57976;48.174;16.370;2023-05-01T11:57:50;99233.07;;;21.11;45.73
70488;BME280;57976;48.174;16.370;2023-05-01T11:59:56;99234.95;;;21.19;45.47
70488;BME280;57976;48.174;16.370;2023-05-01T12:02:01;99235.66;;;21.22;45.28
70488;BME280;57976;48.174;16.370;2023-05-01T12:04:06;99230.14;;;21.20;45.12
70488;BME280;57976;48.174;16.370;2023-05-01T12:06:12;99236.86;;;21.19;45.12
70488;BME280;57976;48.174;16.370;2023-05-01T12:08:19;99235.02;;;21.22;45.17
70488;BME280;57976;48.174;16.370;2023-05-01T12:10:24;99229.86;;;21.25;45.46
70488;BME280;57976;48.174;16.370;2023-05-01T12:12:29;99230.56;;;21.31;45.42
70488;BME280;57976;48.174;16.370;2023-05-01T12:14:35;99228.87;;;21.40;45.07
70488;BME280;57976;48.174;16.370;2023-05-01T12:16:40;99220.40;;;21.51;44.89
70488;BME280;57976;48.174;16.370;2023-05-01T12:18:45;99219.61;;;21.57;44.92
70488;BME280;57976;48.174;16.370;2023-05-01T12:20:52;99222.44;;;21.59;44.55
70488;BME280;57976;48.174;16.370;2023-05-01T12:22:57;99220.86;;;21.62;44.51
70488;BME280;57976;48.174;16.370;2023-05-01T12:25:04;99213.05;;;21.62;44.43
70488;BME280;57976;48.174;16.370;2023-05-01T12:27:10;99212.88;;;21.60;44.53
70488;BME280;57976;48.174;16.370;2023-05-01T12:29:15;99208.87;;;21.63;44.41
70488;BME280;57976;48.174;16.370;2023-05-01T12:31:20;99208.08;;;21.60;44.54
70488;BME280;57976;48.174;16.370;2023-05-01T12:33:25;99209.31;;;21.63;44.59
70488;BME280;57976;48.174;16.370;2023-05-01T12:35:31;99203.81;;;21.69;44.42
70488;BME280;57976;48.174;16.370;2023-05-01T12:37:36;99205.91;;;21.75;44.15
70488;BME280;57976;48.174;16.370;2023-05-01T12:39:43;99203.04;;;21.75;43.85
70488;BME280;57976;48.174;16.370;2023-05-01T12:41:48;99200.92;;;21.69;44.05
70488;BME280;57976;48.174;16.370;2023-05-01T12:43:53;99205.50;;;21.66;44.17
70488;BME280;57976;48.174;16.370;2023-05-01T12:45:59;99202.02;;;21.69;43.92
70488;BME280;57976;48.174;16.370;2023-05-01T12:48:10;99189.71;;;21.69;43.81
70488;BME280;57976;48.174;16.370;2023-05-01T12:50:15;99181.89;;;21.72;43.68
70488;BME280;57976;48.174;16.370;2023-05-01T12:52:26;99188.16;;;21.76;44.10
70488;BME280;57976;48.174;16.370;2023-05-01T12:54:33;99182.04;;;21.83;43.85
70488;BME280;57976;48.174;16.370;2023-05-01T12:56:39;99186.31;;;21.83;43.86
70488;BME280;57976;48.174;16.370;2023-05-01T12:58:44;99180.48;;;21.85;43.91
70488;BME280;57976;48.174;16.370;2023-05-01T13:00:50;99178.33;;;21.88;43.72
70488;BME280;57976;48.174;16.370;2023-05-01T13:03:03;99177.08;;;21.90;43.47
70488;BME280;57976;48.174;16.370;2023-05-01T13:05:10;99177.77;;;21.92;43.58
70488;BME280;57976;48.174;16.370;2023-05-01T13:07:17;99172.23;;;21.96;43.78
70488;BME280;57976;48.174;16.370;2023-05-01T13:09:22;99169.42;;;22.02;43.58
70488;BME280;57976;48.174;16.370;2023-05-01T13:11:27;99157.98;;;22.00;43.12
70488;BME280;57976;48.174;16.370;2023-05-01T13:13:34;99157.83;;;21.98;43.22
70488;BME280;57976;48.174;16.370;2023-05-01T13:15:39;99156.32;;;21.99;43.17
70488;BME280;57976;48.174;16.370;2023-05-01T13:17:44;99151.50;;;22.04;43.36
70488;BME280;57976;48.174;16.370;2023-05-01T13:19:54;99154.55;;;22.06;43.15
70488;BME280;57976;48.174;16.370;2023-05-01T13:22:00;99150.31;;;22.04;43.01
70488;BME280;57976;48.174;16.370;2023-05-01T13:24:06;99151.31;;;22.01;43.02
70488;BME280;57976;48.174;16.370;2023-05-01T13:26:11;99146.86;;;21.98;42.95
70488;BME280;57976;48.174;16.370;2023-05-01T13:28:19;99149.69;;;21.87;42.60
70488;BME280;57976;48.174;16.370;2023-05-01T13:30:32;99148.85;;;21.73;42.76
70488;BME280;57976;48.174;16.370;2023-05-01T13:32:39;99137.50;;;21.63;43.18
70488;BME280;57976;48.174;16.370;2023-05-01T13:34:44;99142.10;;;21.63;43.62
70488;BME280;57976;48.174;16.370;2023-05-01T13:36:49;99138.00;;;21.64;43.45
70488;BME280;57976;48.174;16.370;2023-05-01T13:38:55;99137.60;;;21.64;43.60
70488;BME280;57976;48.174;16.370;2023-05-01T13:41:01;99132.34;;;21.65;43.83
70488;BME280;57976;48.174;16.370;2023-05-01T13:43:13;99132.59;;;21.70;43.72
70488;BME280;57976;48.174;16.370;2023-05-01T13:45:20;99125.91;;;21.73;43.72
70488;BME280;57976;48.174;16.370;2023-05-01T13:47:26;99119.19;;;21.71;43.48
70488;BME280;57976;48.174;16.370;2023-05-01T13:49:31;99121.28;;;21.64;43.50
70488;BME280;57976;48.174;16.370;2023-05-01T13:51:39;99113.77;;;21.57;43.65
70488;BME280;57976;48.174;16.370;2023-05-01T13:53:44;99114.27;;;21.54;43.74
70488;BME280;57976;48.174;16.370;2023-05-01T13:55:49;99110.21;;;21.52;43.42
70488;BME280;57976;48.174;16.370;2023-05-01T13:57:54;99114.64;;;21.45;43.61
70488;BME280;57976;48.174;16.370;2023-05-01T13:59:58;99111.22;;;21.42;43.50
70488;BME280;57976;48.174;16.370;2023-05-01T14:02:17;99110.09;;;21.41;43.52
70488;BME280;57976;48.174;16.370;2023-05-01T14:04:22;99114.87;;;21.42;43.59
70488;BME280;57976;48.174;16.370;2023-05-01T14:06:27;99115.18;;;21.43;43.77
70488;BME280;57976;48.174;16.370;2023-05-01T14:08:32;99108.52;;;21.39;43.49
70488;BME280;57976;48.174;16.370;2023-05-01T14:10:37;99110.36;;;21.25;43.85
70488;BME280;57976;48.174;16.370;2023-05-01T14:12:42;99107.44;;;21.23;44.07
70488;BME280;57976;48.174;16.370;2023-05-01T14:14:48;99107.95;;;21.31;43.71
70488;BME280;57976;48.174;16.370;2023-05-01T14:16:53;99101.11;;;21.37;43.77
70488;BME280;57976;48.174;16.370;2023-05-01T14:18:58;99100.42;;;21.45;43.83
70488;BME280;57976;48.174;16.370;2023-05-01T14:21:03;99093.83;;;21.54;43.84
70488;BME280;57976;48.174;16.370;2023-05-01T14:23:07;99092.63;;;21.58;43.36
70488;BME280;57976;48.174;16.370;2023-05-01T14:25:23;99082.69;;;21.58;43.34
70488;BME280;57976;48.174;16.370;2023-05-01T14:27:28;99083.34;;;21.60;43.40
70488;BME280;57976;48.174;16.370;2023-05-01T14:29:33;99073.16;;;21.57;43.53
70488;BME280;57976;48.174;16.370;2023-05-01T14:31:38;99074.06;;;21.59;43.93
70488;BME280;57976;48.174;16.370;2023-05-01T14:33:43;99073.49;;;21.66;43.83
70488;BME280;57976;48.174;16.370;2023-05-01T14:35:50;99066.42;;;21.71;43.41
70488;BME280;57976;48.174;16.370;2023-05-01T14:37:56;99064.14;;;21.74;43.36
70488;BME280;57976;48.174;16.370;2023-05-01T14:40:01;99061.08;;;21.75;43.47
70488;BME280;57976;48.174;16.370;2023-05-01T14:42:06;99061.73;;;21.78;43.54
70488;BME280;57976;48.174;16.370;2023-05-01T14:44:17;99065.92;;;21.82;43.86
70488;BME280;57976;48.174;16.370;2023-05-01T14:46:28;99066.23;;;21.88;43.59
70488;BME280;57976;48.174;16.370;2023-05-01T14:48:35;99058.62;;;21.93;43.26
70488;BME280;57976;48.174;16.370;2023-05-01T14:50:40;99056.27;;;21.94;43.15
70488;BME280;57976;48.174;16.370;2023-05-01T14:52:46;99057.03;;;21.95;42.95
70488;BME280;57976;48.174;16.370;2023-05-01T14:54:51;99055.90;;;21.95;42.98
70488;BME280;57976;48.174;16.370;2023-05-01T14:56:56;99056.41;;;21.91;43.00
70488;BME280;57976;48.174;16.370;2023-05-01T14:59:01;99054.03;;;21.90;42.97
70488;BME280;57976;48.174;16.370;2023-05-01T15:01:06;99058.72;;;21.87;42.90
70488;BME280;57976;48.174;16.370;2023-05-01T15:03:11;99057.79;;;21.83;42.75
70488;BME280;57976;48.174;16.370;2023-05-01T15:05:16;99052.19;;;21.75;42.92
70488;BME280;57976;48.174;16.370;2023-05-01T15:07:22;99047.30;;;21.68;43.07
70488;BME280;57976;48.174;16.370;2023-05-01T15:09:27;99046.80;;;21.60;43.28
70488;BME280;57976;48.174;16.370;2023-05-01T15:11:32;99050.52;;;21.53;43.14
70488;BME280;57976;48.174;16.370;2023-05-01T15:13:37;99047.38;;;21.49;43.34
70488;BME280;57976;48.174;16.370;2023-05-01T15:15:42;99049.52;;;21.45;43.52
70488;BME280;57976;48.174;16.370;2023-05-01T15:17:47;99052.55;;;21.44;43.76
70488;BME280;57976;48.174;16.370;2023-05-01T15:19:52;99053.05;;;21.44;43.71
70488;BME280;57976;48.174;16.370;2023-05-01T15:21:57;99058.95;;;21.46;43.80
70488;BME280;57976;48.174;16.370;2023-05-01T15:24:02;99054.33;;;21.47;43.88
70488;BME280;57976;48.174;16.370;2023-05-01T15:26:07;99053.27;;;21.44;43.82
70488;BME280;57976;48.174;16.370;2023-05-01T15:28:13;99052.23;;;21.44;43.90
70488;BME280;57976;48.174;16.370;2023-05-01T15:30:18;99049.85;;;21.44;43.80
70488;BME280;57976;48.174;16.370;2023-05-01T15:32:23;99044.73;;;21.39;43.94
70488;BME280;57976;48.174;16.370;2023-05-01T15:34:28;99047.11;;;21.38;44.01
70488;BME280;57976;48.174;16.370;2023-05-01T15:36:33;99049.11;;;21.42;44.33
70488;BME280;57976;48.174;16.370;2023-05-01T15:38:38;99047.41;;;21.44;44.25
70488;BME280;57976;48.174;16.370;2023-05-01T15:40:44;99045.96;;;21.41;44.08
70488;BME280;57976;48.174;16.370;2023-05-01T15:42:49;99047.17;;;21.36;44.05
70488;BME280;57976;48.174;16.370;2023-05-01T15:44:54;99048.05;;;21.36;44.23
70488;BME280;57976;48.174;16.370;2023-05-01T15:46:59;99045.02;;;21.35;44.19
70488;BME280;57976;48.174;16.370;2023-05-01T15:49:06;99040.67;;;21.33;44.29
70488;BME280;57976;48.174;16.370;2023-05-01T15:51:11;99041.66;;;21.32;44.18
70488;BME280;57976;48.174;16.370;2023-05-01T15:53:16;99035.33;;;21.26;44.19
70488;BME280;57976;48.174;16.370;2023-05-01T15:55:21;99038.13;;;21.19;43.95
70488;BME280;57976;48.174;16.370;2023-05-01T15:57:26;99037.67;;;21.13;44.23
70488;BME280;57976;48.174;16.370;2023-05-01T15:59:31;99045.16;;;21.06;44.50
70488;BME280;57976;48.174;16.370;2023-05-01T16:01:36;99042.66;;;21.02;44.86
70488;BME280;57976;48.174;16.370;2023-05-01T16:03:45;99044.98;;;21.01;44.99
70488;BME280;57976;48.174;16.370;2023-05-01T16:05:51;99043.30;;;21.04;44.82
70488;BME280;57976;48.174;16.370;2023-05-01T16:07:58;99040.11;;;21.00;44.70
70488;BME280;57976;48.174;16.370;2023-05-01T16:10:04;99042.23;;;20.97;44.83
70488;BME280;57976;48.174;16.370;2023-05-01T16:12:09;99041.64;;;20.94;44.83
70488;BME280;57976;48.174;16.370;2023-05-01T16:14:15;99043.61;;;20.89;44.88
70488;BME280;57976;48.174;16.370;2023-05-01T16:16:23;99040.80;;;20.84;44.98
70488;BME280;57976;48.174;16.370;2023-05-01T16:18:28;99042.33;;;20.79;45.21
70488;BME280;57976;48.174;16.370;2023-05-01T16:20:40;99040.86;;;20.79;45.38
70488;BME280;57976;48.174;16.370;2023-05-01T16:22:46;99039.63;;;20.77;45.20
70488;BME280;57976;48.174;16.370;2023-05-01T16:24:51;99039.04;;;20.73;45.45
70488;BME280;57976;48.174;16.370;2023-05-01T16:26:56;99038.55;;;20.68;45.59
70488;BME280;57976;48.174;16.370;2023-05-01T16:29:04;99036.45;;;20.66;45.76
70488;BME280;57976;48.174;16.370;2023-05-01T16:31:10;99036.71;;;20.65;45.92
70488;BME280;57976;48.174;16.370;2023-05-01T16:33:31;99032.61;;;20.62;45.93
70488;BME280;57976;48.174;16.370;2023-05-01T16:35:37;99031.70;;;20.56;46.11
70488;BME280;57976;48.174;16.370;2023-05-01T16:37:42;99033.88;;;20.50;46.25
70488;BME280;57976;48.174;16.370;2023-05-01T16:39:47;99035.23;;;20.45;46.43
70488;BME280;57976;48.174;16.370;2023-05-01T16:41:53;99036.30;;;20.40;46.44
70488;BME280;57976;48.174;16.370;2023-05-01T16:43:59;99033.39;;;20.35;46.66
70488;BME280;57976;48.174;16.370;2023-05-01T16:46:05;99034.30;;;20.31;46.86
70488;BME280;57976;48.174;16.370;2023-05-01T16:48:12;99034.38;;;20.27;46.88
70488;BME280;57976;48.174;16.370;2023-05-01T16:50:19;99035.39;;;20.23;47.04
70488;BME280;57976;48.174;16.370;2023-05-01T16:52:25;99033.15;;;20.18;47.17
70488;BME280;57976;48.174;16.370;2023-05-01T16:54:30;99037.41;;;20.12;47.24
70488;BME280;57976;48.174;16.370;2023-05-01T16:56:35;99039.41;;;20.08;47.47
70488;BME280;57976;48.174;16.370;2023-05-01T16:58:40;99040.65;;;20.04;47.63
70488;BME280;57976;48.174;16.370;2023-05-01T17:00:46;99048.23;;;20.03;47.96
70488;BME280;57976;48.174;16.370;2023-05-01T17:02:51;99044.70;;;19.98;47.82
70488;BME280;57976;48.174;16.370;2023-05-01T17:04:56;99044.19;;;19.92;48.04
70488;BME280;57976;48.174;16.370;2023-05-01T17:07:01;99043.44;;;19.85;48.18
70488;BME280;57976;48.174;16.370;2023-05-01T17:09:06;99041.64;;;19.80;48.19
70488;BME280;57976;48.174;16.370;2023-05-01T17:11:11;99039.30;;;19.74;48.41
70488;BME280;57976;48.174;16.370;2023-05-01T17:13:16;99036.21;;;19.70;48.61
70488;BME280;57976;48.174;16.370;2023-05-01T17:15:21;99039.83;;;19.64;48.53
70488;BME280;57976;48.174;16.370;2023-05-01T17:17:26;99037.33;;;19.58;48.87
70488;BME280;57976;48.174;16.370;2023-05-01T17:19:32;99032.92;;;19.53;49.00
70488;BME280;57976;48.174;16.370;2023-05-01T17:21:37;99033.49;;;19.48;48.93
70488;BME280;57976;48.174;16.370;2023-05-01T17:23:45;99036.94;;;19.42;48.98
70488;BME280;57976;48.174;16.370;2023-05-01T17:25:50;99034.75;;;19.37;49.19
70488;BME280;57976;48.174;16.370;2023-05-01T17:27:55;99037.48;;;19.33;49.27
70488;BME280;57976;48.174;16.370;2023-05-01T17:30:00;99036.20;;;19.26;49.48
70488;BME280;57976;48.174;16.370;2023-05-01T17:32:06;99041.19;;;19.22;49.70
70488;BME280;57976;48.174;16.370;2023-05-01T17:34:12;99043.27;;;19.15;49.88
70488;BME280;57976;48.174;16.370;2023-05-01T17:36:17;99045.15;;;19.11;50.03
70488;BME280;57976;48.174;16.370;2023-05-01T17:38:21;99041.04;;;19.07;50.15
70488;BME280;57976;48.174;16.370;2023-05-01T17:40:27;99045.92;;;19.04;50.36
70488;BME280;57976;48.174;16.370;2023-05-01T17:42:32;99039.86;;;19.01;50.55
70488;BME280;57976;48.174;16.370;2023-05-01T17:44:37;99040.53;;;18.96;50.61
70488;BME280;57976;48.174;16.370;2023-05-01T17:46:42;99039.39;;;18.92;50.66
70488;BME280;57976;48.174;16.370;2023-05-01T17:48:47;99034.83;;;18.88;50.77
70488;BME280;57976;48.174;16.370;2023-05-01T17:50:52;99034.25;;;18.82;50.85
70488;BME280;57976;48.174;16.370;2023-05-01T17:52:58;99037.23;;;18.76;51.05
70488;BME280;57976;48.174;16.370;2023-05-01T17:55:05;99032.83;;;18.71;51.22
70488;BME280;57976;48.174;16.370;2023-05-01T17:57:11;99034.77;;;18.65;51.38
70488;BME280;57976;48.174;16.370;2023-05-01T17:59:17;99037.34;;;18.60;51.53
70488;BME280;57976;48.174;16.370;2023-05-01T18:01:23;99035.09;;;18.56;51.71
70488;BME280;57976;48.174;16.370;2023-05-01T18:03:28;99039.67;;;18.48;51.94
70488;BME280;57976;48.174;16.370;2023-05-01T18:05:34;99035.34;;;18.42;52.05
70488;BME280;57976;48.174;16.370;2023-05-01T18:07:39;99039.05;;;18.38;52.24
70488;BME280;57976;48.174;16.370;2023-05-01T18:09:44;99039.38;;;18.33;52.30
70488;BME280;57976;48.174;16.370;2023-05-01T18:11:50;99040.90;;;18.27;52.46
70488;BME280;57976;48.174;16.370;2023-05-01T18:13:56;99035.90;;;18.23;52.55
70488;BME280;57976;48.174;16.370;2023-05-01T18:16:01;99037.73;;;18.19;52.69
70488;BME280;57976;48.174;16.370;2023-05-01T18:18:07;99039.75;;;18.14;52.71
70488;BME280;57976;48.174;16.370;2023-05-01T18:20:14;99039.12;;;18.09;52.85
70488;BME280;57976;48.174;16.370;2023-05-01T18:22:20;99042.95;;;18.04;52.99
70488;BME280;57976;48.174;16.370;2023-05-01T18:24:25;99045.13;;;17.99;53.11
70488;BME280;57976;48.174;16.370;2023-05-01T18:26:30;99041.32;;;17.95;53.17
70488;BME280;57976;48.174;16.370;2023-05-01T18:28:36;99046.73;;;17.92;53.28
70488;BME280;57976;48.174;16.370;2023-05-01T18:30:41;99048.46;;;17.88;53.33
70488;BME280;57976;48.174;16.370;2023-05-01T18:32:47;99052.48;;;17.85;53.42
70488;BME280;57976;48.174;16.370;2023-05-01T18:34:53;99048.98;;;17.81;53.65
70488;BME280;57976;48.174;16.370;2023-05-01T18:37:00;99050.14;;;17.78;53.69
70488;BME280;57976;48.174;16.370;2023-05-01T18:39:07;99048.73;;;17.77;53.90
70488;BME280;57976;48.174;16.370;2023-05-01T18:41:12;99051.79;;;17.76;53.98
70488;BME280;57976;48.174;16.370;2023-05-01T18:43:17;99054.95;;;17.74;54.05
70488;BME280;57976;48.174;16.370;2023-05-01T18:45:26;99054.55;;;17.71;54.16
70488;BME280;57976;48.174;16.370;2023-05-01T18:47:31;99060.48;;;17.68;54.21
70488;BME280;57976;48.174;16.370;2023-05-01T18:49:38;99064.27;;;17.64;54.26
70488;BME280;57976;48.174;16.370;2023-05-01T18:51:45;99065.98;;;17.63;54.37
70488;BME280;57976;48.174;16.370;2023-05-01T18:53:50;99070.61;;;17.62;54.50
70488;BME280;57976;48.174;16.370;2023-05-01T18:55:56;99073.33;;;17.60;54.39
70488;BME280;57976;48.174;16.370;2023-05-01T18:58:01;99070.80;;;17.57;54.67
70488;BME280;57976;48.174;16.370;2023-05-01T19:00:09;99077.36;;;17.54;54.61
70488;BME280;57976;48.174;16.370;2023-05-01T19:02:15;99077.15;;;17.51;54.70
70488;BME280;57976;48.174;16.370;2023-05-01T19:04:21;99078.72;;;17.49;54.82
70488;BME280;57976;48.174;16.370;2023-05-01T19:06:37;99076.80;;;17.47;54.91
70488;BME280;57976;48.174;16.370;2023-05-01T19:08:48;99077.49;;;17.46;54.95
70488;BME280;57976;48.174;16.370;2023-05-01T19:10:54;99082.29;;;17.41;54.83
70488;BME280;57976;48.174;16.370;2023-05-01T19:13:00;99080.80;;;17.39;55.15
70488;BME280;57976;48.174;16.370;2023-05-01T19:15:12;99083.32;;;17.34;55.22
70488;BME280;57976;48.174;16.370;2023-05-01T19:17:18;99084.61;;;17.30;55.44
70488;BME280;57976;48.174;16.370;2023-05-01T19:19:23;99086.41;;;17.27;55.44
70488;BME280;57976;48.174;16.370;2023-05-01T19:21:33;99087.29;;;17.24;55.48
70488;BME280;57976;48.174;16.370;2023-05-01T19:23:39;99083.73;;;17.20;55.65
70488;BME280;57976;48.174;16.370;2023-05-01T19:25:46;99089.29;;;17.16;55.77
70488;BME280;57976;48.174;16.370;2023-05-01T19:27:53;99091.13;;;17.13;56.05
70488;BME280;57976;48.174;16.370;2023-05-01T19:30:01;99091.60;;;17.09;56.14
70488;BME280;57976;48.174;16.370;2023-05-01T19:32:08;99093.41;;;17.07;56.37
70488;BME280;57976;48.174;16.370;2023-05-01T19:34:14;99094.98;;;17.04;56.52
70488;BME280;57976;48.174;16.370;2023-05-01T19:36:20;99093.63;;;17.01;56.58
70488;BME280;57976;48.174;16.370;2023-05-01T19:38:25;99095.02;;;16.98;56.80
70488;BME280;57976;48.174;16.370;2023-05-01T19:40:32;99093.85;;;16.96;56.73
70488;BME280;57976;48.174;16.370;2023-05-01T19:42:38;99094.48;;;16.92;56.98
70488;BME280;57976;48.174;16.370;2023-05-01T19:44:44;99096.83;;;16.90;57.10
70488;BME280;57976;48.174;16.370;2023-05-01T19:46:50;99100.07;;;16.87;57.28
70488;BME280;57976;48.174;16.370;2023-05-01T19:48:56;99099.98;;;16.84;57.38
70488;BME280;57976;48.174;16.370;2023-05-01T19:51:04;99097.71;;;16.80;57.49
70488;BME280;57976;48.174;16.370;2023-05-01T19:53:10;99100.35;;;16.77;57.63
70488;BME280;57976;48.174;16.370;2023-05-01T19:55:25;99100.06;;;16.72;57.75
70488;BME280;57976;48.174;16.370;2023-05-01T19:57:31;99099.52;;;16.68;57.93
70488;BME280;57976;48.174;16.370;2023-05-01T19:59:37;99102.62;;;16.63;58.09
70488;BME280;57976;48.174;16.370;2023-05-01T20:01:43;99103.65;;;16.61;58.37
70488;BME280;57976;48.174;16.370;2023-05-01T20:03:48;99104.33;;;16.56;58.58
70488;BME280;57976;48.174;16.370;2023-05-01T20:05:54;99104.74;;;16.52;58.76
70488;BME280;57976;48.174;16.370;2023-05-01T20:08:00;99106.65;;;16.48;58.82
70488;BME280;57976;48.174;16.370;2023-05-01T20:10:05;99109.46;;;16.43;59.28
70488;BME280;57976;48.174;16.370;2023-05-01T20:12:11;99112.27;;;16.38;59.42
70488;BME280;57976;48.174;16.370;2023-05-01T20:14:16;99114.25;;;16.35;59.92
70488;BME280;57976;48.174;16.370;2023-05-01T20:16:22;99118.97;;;16.36;59.87
70488;BME280;57976;48.174;16.370;2023-05-01T20:18:27;99113.23;;;16.37;60.16
70488;BME280;57976;48.174;16.370;2023-05-01T20:20:33;99112.09;;;16.40;60.36
70488;BME280;57976;48.174;16.370;2023-05-01T20:22:38;99115.14;;;16.39;60.46
70488;BME280;57976;48.174;16.370;2023-05-01T20:24:43;99113.55;;;16.37;60.66
70488;BME280;57976;48.174;16.370;2023-05-01T20:26:49;99112.55;;;16.35;60.73
70488;BME280;57976;48.174;16.370;2023-05-01T20:28:54;99116.50;;;16.34;61.05
70488;BME280;57976;48.174;16.370;2023-05-01T20:30:59;99118.95;;;16.32;61.21
70488;BME280;57976;48.174;16.370;2023-05-01T20:33:04;99120.92;;;16.31;61.13
70488;BME280;57976;48.174;16.370;2023-05-01T20:35:11;99122.38;;;16.31;61.62
70488;BME280;57976;48.174;16.370;2023-05-01T20:37:16;99126.56;;;16.31;61.65
70488;BME280;57976;48.174;16.370;2023-05-01T20:39:22;99128.73;;;16.32;61.67
70488;BME280;57976;48.174;16.370;2023-05-01T20:41:27;99130.25;;;16.33;61.85
70488;BME280;57976;48.174;16.370;2023-05-01T20:43:33;99128.33;;;16.34;61.74
70488;BME280;57976;48.174;16.370;2023-05-01T20:45:38;99128.84;;;16.35;62.11
70488;BME280;57976;48.174;16.370;2023-05-01T20:47:43;99130.71;;;16.35;62.25